createdAt,value
2022-11-01T00:02:10.809Z,15.60
2022-11-01T00:04:40.005Z,15.60
2022-11-01T00:07:09.034Z,15.90
2022-11-01T00:09:39.438Z,15.90
2022-11-01T00:12:08.489Z,16.00
2022-11-01T00:14:37.308Z,16.00
2022-11-01T00:17:06.234Z,15.90
2022-11-01T00:19:35.015Z,15.80
2022-11-01T00:22:03.834Z,16.00
2022-11-01T00:24:32.656Z,15.70
2022-11-01T00:27:02.915Z,15.80
2022-11-01T00:29:31.746Z,15.90
2022-11-01T00:32:01.473Z,15.80
2022-11-01T00:34:30.383Z,15.80
2022-11-01T00:36:59.076Z,15.90
2022-11-01T00:39:30.559Z,15.70
2022-11-01T00:42:00.363Z,15.70
2022-11-01T00:44:30.711Z,15.40
2022-11-01T00:46:59.530Z,15.40
2022-11-01T00:49:28.291Z,15.40
2022-11-01T00:51:57.126Z,15.30
2022-11-01T00:54:25.935Z,15.20
2022-11-01T00:56:54.691Z,15.50
2022-11-01T00:59:23.660Z,15.50
2022-11-01T01:01:53.968Z,15.40
2022-11-01T01:04:22.911Z,15.50
2022-11-01T01:06:51.683Z,15.40
2022-11-01T01:09:20.505Z,15.30
2022-11-01T01:11:49.363Z,15.20
2022-11-01T01:14:18.141Z,15.00
2022-11-01T01:16:46.939Z,15.20
2022-11-01T01:19:17.268Z,15.40
2022-11-01T01:21:46.181Z,15.30
2022-11-01T01:24:14.951Z,15.20
2022-11-01T01:26:43.769Z,15.30
2022-11-01T01:29:12.676Z,15.20
2022-11-01T01:31:41.540Z,15.40
2022-11-01T01:34:10.431Z,15.30
2022-11-01T01:36:40.740Z,15.30
2022-11-01T01:39:09.820Z,15.30
2022-11-01T01:41:56.174Z,15.20
2022-11-01T01:45:12.599Z,15.20
2022-11-01T01:47:43.879Z,15.20
2022-11-01T01:50:16.443Z,15.20
2022-11-01T01:56:44.847Z,15.20
2022-11-01T01:59:14.044Z,15.40
2022-11-01T02:01:43.674Z,15.40
2022-11-01T02:04:17.052Z,15.30
2022-11-01T02:06:46.014Z,15.30
2022-11-01T02:09:17.780Z,15.20
2022-11-01T02:11:46.916Z,15.10
2022-11-01T02:14:16.622Z,15.30
2022-11-01T02:16:53.944Z,15.10
2022-11-01T02:20:04.693Z,15.10
2022-11-01T02:22:58.290Z,15.20
2022-11-01T02:25:45.466Z,15.30
2022-11-01T02:28:33.958Z,15.40
2022-11-01T02:31:18.534Z,15.30
2022-11-01T02:33:53.602Z,15.20
2022-11-01T02:36:32.316Z,15.20
2022-11-01T02:39:04.206Z,15.20
2022-11-01T02:41:37.928Z,15.30
2022-11-01T02:44:11.184Z,15.10
2022-11-01T02:47:00.036Z,15.10
2022-11-01T02:49:32.856Z,14.90
2022-11-01T02:52:03.472Z,14.80
2022-11-01T02:54:34.828Z,14.70
2022-11-01T02:57:08.728Z,14.80
2022-11-01T02:59:45.401Z,14.90
2022-11-01T03:02:18.920Z,14.80
2022-11-01T03:04:49.937Z,14.70
2022-11-01T03:07:19.165Z,14.70
2022-11-01T03:09:48.098Z,14.70
2022-11-01T03:12:25.885Z,14.70
2022-11-01T03:14:59.696Z,14.80
2022-11-01T03:17:34.681Z,14.70
2022-11-01T03:20:10.277Z,14.50
2022-11-01T03:22:45.438Z,14.60
2022-11-01T03:25:31.355Z,14.70
2022-11-01T03:28:02.883Z,14.60
2022-11-01T03:30:33.067Z,14.60
2022-11-01T03:33:02.073Z,14.60
2022-11-01T03:35:37.056Z,14.50
2022-11-01T03:38:14.048Z,14.40
2022-11-01T03:40:47.499Z,14.60
2022-11-01T03:43:18.923Z,14.70
2022-11-01T03:45:48.326Z,14.60
2022-11-01T03:48:17.029Z,14.70
2022-11-01T03:50:51.392Z,14.60
2022-11-01T03:53:20.727Z,14.50
2022-11-01T03:55:49.595Z,14.50
2022-11-01T03:58:18.614Z,14.50
2022-11-01T04:00:49.201Z,14.60
2022-11-01T04:03:18.198Z,14.60
2022-11-01T04:05:47.017Z,14.60
2022-11-01T04:08:17.819Z,14.60
2022-11-01T04:10:46.594Z,14.40
2022-11-01T04:13:15.327Z,14.30
2022-11-01T04:16:01.519Z,14.20
2022-11-01T04:18:48.039Z,14.30
2022-11-01T04:21:19.305Z,14.40
2022-11-01T04:23:49.539Z,14.40
2022-11-01T04:26:20.659Z,14.30
2022-11-01T04:28:58.136Z,14.40
2022-11-01T04:31:29.160Z,14.30
2022-11-01T04:33:58.519Z,14.10
2022-11-01T04:36:27.578Z,14.30
2022-11-01T04:38:59.000Z,14.20
2022-11-01T04:41:29.378Z,14.40
2022-11-01T04:44:00.418Z,14.50
2022-11-01T04:46:31.677Z,14.40
2022-11-01T04:49:00.497Z,14.50
2022-11-01T04:51:31.496Z,14.60
2022-11-01T04:54:01.790Z,14.60
2022-11-01T04:56:30.579Z,14.70
2022-11-01T04:58:59.447Z,14.60
2022-11-01T05:01:28.543Z,14.70
2022-11-01T05:03:57.449Z,14.60
2022-11-01T05:06:26.299Z,14.30
2022-11-01T05:08:57.129Z,14.00
2022-11-01T05:11:27.421Z,14.20
2022-11-01T05:13:56.203Z,14.20
2022-11-01T05:16:25.038Z,14.20
2022-11-01T05:18:53.938Z,14.30
2022-11-01T05:21:23.006Z,14.20
2022-11-01T05:23:51.769Z,14.40
2022-11-01T05:26:20.598Z,14.50
2022-11-01T05:28:50.829Z,14.40
2022-11-01T05:31:19.638Z,14.60
2022-11-01T05:33:48.459Z,14.50
2022-11-01T05:36:17.349Z,14.40
2022-11-01T05:38:46.187Z,14.10
2022-11-01T05:41:14.976Z,14.00
2022-11-01T05:43:43.839Z,13.90
2022-11-01T05:46:14.144Z,13.80
2022-11-01T05:48:43.639Z,13.70
2022-11-01T05:51:13.348Z,13.80
2022-11-01T05:53:43.331Z,13.80
2022-11-01T05:56:12.160Z,14.00
2022-11-01T05:58:40.968Z,13.90
2022-11-01T06:01:10.602Z,13.80
2022-11-01T06:03:40.872Z,14.00
2022-11-01T06:06:09.798Z,13.90
2022-11-01T06:08:38.610Z,14.00
2022-11-01T06:11:10.118Z,13.90
2022-11-01T06:13:38.928Z,13.90
2022-11-01T06:16:09.623Z,13.80
2022-11-01T06:18:39.888Z,13.80
2022-11-01T06:21:08.782Z,13.90
2022-11-01T06:23:37.649Z,14.00
2022-11-01T06:26:07.538Z,13.90
2022-11-01T06:28:36.403Z,14.00
2022-11-01T06:33:41.540Z,14.10
2022-11-01T06:36:10.856Z,14.20
2022-11-01T06:38:39.605Z,14.30
2022-11-01T06:41:08.819Z,14.30
2022-11-01T06:43:38.433Z,14.30
2022-11-01T06:46:08.119Z,14.40
2022-11-01T06:48:37.142Z,14.80
2022-11-01T06:51:07.779Z,14.80
2022-11-01T06:53:36.644Z,15.00
2022-11-01T06:56:05.700Z,14.90
2022-11-01T06:58:34.496Z,15.00
2022-11-01T07:01:03.700Z,15.00
2022-11-01T07:03:32.587Z,15.20
2022-11-01T07:06:02.158Z,15.20
2022-11-01T07:08:32.420Z,15.10
2022-11-01T07:11:01.262Z,15.20
2022-11-01T07:13:34.031Z,14.90
2022-11-01T07:16:04.299Z,15.10
2022-11-01T07:18:34.686Z,15.20
2022-11-01T07:21:05.468Z,15.40
2022-11-01T07:23:35.918Z,15.50
2022-11-01T07:26:05.084Z,15.60
2022-11-01T07:28:33.878Z,15.70
2022-11-01T07:31:03.252Z,15.70
2022-11-01T07:33:32.038Z,15.90
2022-11-01T07:36:02.223Z,16.10
2022-11-01T07:38:31.297Z,15.80
2022-11-01T07:41:02.900Z,15.80
2022-11-01T07:43:31.794Z,15.90
2022-11-01T07:46:01.464Z,16.10
2022-11-01T07:48:30.278Z,16.20
2022-11-01T07:50:59.188Z,16.50
2022-11-01T07:53:27.972Z,16.50
2022-11-01T07:55:56.802Z,16.60
2022-11-01T07:58:27.159Z,16.80
2022-11-01T08:00:56.140Z,16.90
2022-11-01T08:03:25.198Z,17.00
2022-11-01T08:05:55.079Z,17.10
2022-11-01T08:08:23.891Z,17.10
2022-11-01T08:10:53.299Z,17.00
2022-11-01T08:13:23.873Z,17.10
2022-11-01T08:15:55.527Z,17.20
2022-11-01T08:18:25.596Z,17.40
2022-11-01T08:20:54.760Z,17.50
2022-11-01T08:23:23.590Z,17.50
2022-11-01T08:25:52.486Z,17.60
2022-11-01T08:28:22.918Z,17.70
2022-11-01T08:30:53.477Z,17.80
2022-11-01T08:33:22.228Z,17.80
2022-11-01T08:35:51.067Z,17.80
2022-11-01T08:38:19.868Z,17.80
2022-11-01T08:40:49.408Z,17.80
2022-11-01T08:43:18.425Z,17.90
2022-11-01T08:45:47.379Z,17.80
2022-11-01T08:48:17.639Z,17.90
2022-11-01T08:50:46.518Z,18.10
2022-11-01T08:53:16.731Z,18.10
2022-11-01T08:55:45.659Z,18.20
2022-11-01T08:58:14.448Z,18.50
2022-11-01T09:00:43.336Z,16.80
2022-11-01T09:03:12.141Z,18.50
2022-11-01T09:05:42.418Z,18.40
2022-11-01T09:08:11.189Z,18.30
2022-11-01T09:10:39.968Z,18.40
2022-11-01T09:13:08.739Z,18.30
2022-11-01T09:15:37.589Z,18.40
2022-11-01T09:18:07.559Z,18.40
2022-11-01T09:20:36.393Z,18.40
2022-11-01T09:23:06.801Z,18.40
2022-11-01T09:25:37.107Z,18.40
2022-11-01T09:28:06.340Z,18.40
2022-11-01T09:30:36.974Z,18.40
2022-11-01T09:33:08.337Z,18.60
2022-11-01T09:35:37.572Z,18.70
2022-11-01T09:38:07.835Z,18.60
2022-11-01T09:40:45.496Z,18.60
2022-11-01T09:43:21.077Z,18.70
2022-11-01T09:45:52.727Z,18.80
2022-11-01T09:48:22.079Z,19.00
2022-11-01T09:50:50.894Z,19.30
2022-11-01T09:53:26.700Z,19.60
2022-11-01T09:56:02.148Z,19.70
2022-11-01T09:58:40.510Z,19.70
2022-11-01T10:01:40.060Z,19.60
2022-11-01T10:04:31.196Z,19.50
2022-11-01T10:07:07.223Z,19.60
2022-11-01T10:09:46.281Z,19.70
2022-11-01T10:12:36.919Z,20.00
2022-11-01T10:15:20.832Z,19.80
2022-11-01T10:17:54.011Z,20.20
2022-11-01T10:20:27.481Z,20.50
2022-11-01T10:22:56.871Z,20.70
2022-11-01T10:25:30.622Z,20.80
2022-11-01T10:28:06.689Z,21.00
2022-11-01T10:30:40.625Z,21.00
2022-11-01T10:33:27.206Z,20.60
2022-11-01T10:36:00.292Z,20.70
2022-11-01T10:40:09.594Z,20.50
2022-11-01T10:42:38.907Z,20.80
2022-11-01T10:45:12.078Z,20.80
2022-11-01T10:47:43.585Z,21.40
2022-11-01T10:50:19.695Z,21.80
2022-11-01T10:52:55.620Z,21.80
2022-11-01T10:55:31.098Z,22.10
2022-11-01T10:58:05.329Z,22.10
2022-11-01T11:00:38.868Z,21.90
2022-11-01T11:03:19.117Z,22.10
2022-11-01T11:05:50.058Z,21.90
2022-11-01T11:08:21.954Z,21.60
2022-11-01T11:10:52.469Z,21.40
2022-11-01T11:13:24.398Z,21.20
2022-11-01T11:15:55.114Z,20.90
2022-11-01T11:18:26.938Z,20.90
2022-11-01T11:21:00.438Z,20.80
2022-11-01T11:23:33.257Z,20.80
2022-11-01T11:26:09.547Z,20.90
2022-11-01T11:28:44.551Z,21.70
2022-11-01T11:31:15.632Z,21.10
2022-11-01T11:33:51.743Z,21.20
2022-11-01T11:36:28.876Z,21.30
2022-11-01T11:38:57.790Z,21.20
2022-11-01T11:41:31.337Z,21.30
2022-11-01T11:44:00.339Z,21.30
2022-11-01T11:46:29.636Z,21.10
2022-11-01T11:49:01.433Z,20.80
2022-11-01T11:51:31.228Z,20.70
2022-11-01T11:54:26.387Z,20.40
2022-11-01T11:57:11.674Z,20.40
2022-11-01T11:59:42.481Z,20.30
2022-11-01T12:02:20.171Z,20.30
2022-11-01T12:04:54.163Z,20.30
2022-11-01T12:07:28.504Z,20.20
2022-11-01T12:09:58.552Z,20.10
2022-11-01T12:12:30.563Z,20.20
2022-11-01T12:15:00.590Z,20.20
2022-11-01T12:17:37.211Z,20.10
2022-11-01T12:20:17.440Z,20.20
2022-11-01T12:22:51.108Z,20.30
2022-11-01T12:25:23.059Z,20.40
2022-11-01T12:28:01.243Z,20.60
2022-11-01T12:30:34.837Z,20.60
2022-11-01T12:33:08.800Z,20.80
2022-11-01T12:35:44.117Z,21.10
2022-11-01T12:38:30.959Z,21.20
2022-11-01T12:41:05.935Z,21.10
2022-11-01T12:43:51.130Z,21.20
2022-11-01T12:46:26.945Z,21.10
2022-11-01T12:49:01.636Z,21.20
2022-11-01T12:51:34.206Z,21.30
2022-11-01T12:54:09.655Z,21.30
2022-11-01T12:56:38.577Z,21.50
2022-11-01T12:59:12.408Z,21.30
2022-11-01T13:01:53.230Z,21.30
2022-11-01T13:04:31.738Z,21.30
2022-11-01T13:07:16.106Z,21.10
2022-11-01T13:09:56.705Z,21.00
2022-11-01T13:12:35.154Z,20.80
2022-11-01T13:15:14.157Z,20.60
2022-11-01T13:17:50.338Z,20.30
2022-11-01T13:20:39.428Z,20.20
2022-11-01T13:23:17.476Z,20.20
2022-11-01T13:25:54.596Z,20.10
2022-11-01T13:28:46.197Z,20.10
2022-11-01T13:31:27.457Z,19.60
2022-11-01T13:34:05.707Z,19.60
2022-11-01T13:36:40.629Z,19.50
2022-11-01T13:39:21.076Z,19.50
2022-11-01T13:41:55.742Z,19.40
2022-11-01T13:44:29.941Z,19.50
2022-11-01T13:47:26.198Z,19.40
2022-11-01T13:50:24.966Z,19.00
2022-11-01T13:52:58.996Z,19.00
2022-11-01T13:55:32.859Z,19.00
2022-11-01T13:58:02.047Z,19.00
2022-11-01T14:00:44.440Z,19.10
2022-11-01T14:03:29.769Z,19.10
2022-11-01T14:09:30.987Z,19.10
2022-11-01T14:12:11.629Z,19.20
2022-11-01T14:14:53.647Z,19.30
2022-11-01T14:18:04.524Z,19.30
2022-11-01T14:20:53.715Z,19.50
2022-11-01T14:24:00.105Z,19.40
2022-11-01T14:27:04.982Z,19.40
2022-11-01T14:29:38.638Z,19.20
2022-11-01T14:32:07.946Z,19.20
2022-11-01T14:34:39.156Z,19.00
2022-11-01T14:37:27.281Z,18.80
2022-11-01T14:40:08.577Z,18.80
2022-11-01T14:42:43.920Z,18.70
2022-11-01T14:45:27.918Z,18.70
2022-11-01T14:48:00.838Z,18.60
2022-11-01T14:50:36.792Z,18.50
2022-11-01T14:53:14.071Z,18.60
2022-11-01T14:55:42.939Z,18.60
2022-11-01T14:58:20.151Z,18.60
2022-11-01T15:00:50.303Z,18.60
2022-11-01T15:03:20.581Z,18.60
2022-11-01T15:05:53.060Z,18.50
2022-11-01T15:08:27.574Z,18.40
2022-11-01T15:11:00.043Z,18.40
2022-11-01T15:13:30.987Z,18.40
2022-11-01T15:16:07.759Z,18.40
2022-11-01T15:18:44.172Z,18.40
2022-11-01T15:23:57.300Z,18.40
2022-11-01T15:26:28.700Z,18.40
2022-11-01T15:28:59.612Z,18.30
2022-11-01T15:31:29.319Z,18.30
2022-11-01T15:34:00.289Z,18.20
2022-11-01T15:36:33.019Z,18.10
2022-11-01T15:39:05.570Z,18.10
2022-11-01T15:41:35.761Z,18.10
2022-11-01T15:44:06.447Z,18.00
2022-11-01T15:46:39.438Z,17.90
2022-11-01T15:49:11.889Z,17.90
2022-11-01T15:51:47.079Z,17.90
2022-11-01T15:54:31.807Z,17.90
2022-11-01T15:57:04.751Z,17.80
2022-11-01T15:59:39.170Z,17.90
2022-11-01T16:02:14.913Z,17.90
2022-11-01T16:04:47.959Z,17.90
2022-11-01T16:07:20.358Z,17.80
2022-11-01T16:09:52.979Z,17.80
2022-11-01T16:12:24.379Z,17.80
2022-11-01T16:14:55.439Z,17.70
2022-11-01T16:17:34.055Z,17.80
2022-11-01T16:20:05.498Z,17.70
2022-11-01T16:22:39.611Z,17.70
2022-11-01T16:25:22.508Z,18.10
2022-11-01T16:27:57.481Z,17.60
2022-11-01T16:30:46.379Z,17.60
2022-11-01T16:33:27.341Z,17.70
2022-11-01T16:35:58.591Z,17.60
2022-11-01T16:38:37.934Z,17.50
2022-11-01T16:41:18.158Z,17.50
2022-11-01T16:43:48.786Z,17.50
2022-11-01T16:46:17.681Z,17.40
2022-11-01T16:48:55.442Z,17.20
2022-11-01T16:51:27.045Z,17.20
2022-11-01T16:53:56.879Z,18.30
2022-11-01T16:56:37.926Z,17.10
2022-11-01T16:59:09.340Z,17.20
2022-11-01T17:01:39.350Z,17.20
2022-11-01T17:04:09.045Z,17.10
2022-11-01T17:06:39.270Z,17.30
2022-11-01T17:09:13.900Z,17.10
2022-11-01T17:11:50.475Z,16.90
2022-11-01T17:14:24.649Z,17.20
2022-11-01T17:16:56.470Z,17.10
2022-11-01T17:19:30.974Z,17.20
2022-11-01T17:22:02.658Z,17.20
2022-11-01T17:24:33.526Z,17.40
2022-11-01T17:27:06.088Z,17.20
2022-11-01T17:29:35.132Z,17.20
2022-11-01T17:32:09.056Z,17.20
2022-11-01T17:34:38.263Z,17.20
2022-11-01T17:37:07.453Z,17.10
2022-11-01T17:39:37.838Z,17.10
2022-11-01T17:42:08.130Z,16.90
2022-11-01T17:44:39.270Z,16.70
2022-11-01T17:47:10.798Z,16.70
2022-11-01T17:49:39.680Z,16.50
2022-11-01T17:52:08.680Z,16.40
2022-11-01T17:54:37.568Z,16.50
2022-11-01T17:57:07.841Z,16.50
2022-11-01T17:59:36.630Z,16.60
2022-11-01T18:02:05.599Z,16.70
2022-11-01T18:04:36.547Z,16.80
2022-11-01T18:07:06.778Z,16.90
2022-11-01T18:09:37.522Z,17.00
2022-11-01T18:12:14.040Z,17.00
2022-11-01T18:14:57.301Z,16.90
2022-11-01T18:17:41.455Z,16.60
2022-11-01T18:20:27.900Z,16.60
2022-11-01T18:23:02.236Z,16.80
2022-11-01T18:25:36.858Z,16.60
2022-11-01T18:28:15.189Z,16.80
2022-11-01T18:30:47.682Z,16.90
2022-11-01T18:33:24.992Z,16.90
2022-11-01T18:36:00.781Z,17.00
2022-11-01T18:38:33.588Z,17.10
2022-11-01T18:41:04.802Z,16.90
2022-11-01T18:43:38.700Z,17.10
2022-11-01T18:46:26.201Z,17.10
2022-11-01T18:49:00.329Z,17.20
2022-11-01T18:51:31.532Z,17.20
2022-11-01T18:54:21.170Z,17.20
2022-11-01T18:56:54.148Z,17.20
2022-11-01T18:59:29.736Z,17.10
2022-11-01T19:02:03.084Z,17.10
2022-11-01T19:04:35.856Z,17.10
2022-11-01T19:07:13.514Z,17.00
2022-11-01T19:09:44.861Z,16.90
2022-11-01T19:12:17.016Z,16.90
2022-11-01T19:14:51.326Z,16.90
2022-11-01T19:17:24.937Z,16.90
2022-11-01T19:19:54.723Z,16.90
2022-11-01T19:22:33.048Z,16.90
2022-11-01T19:25:05.205Z,16.90
2022-11-01T19:27:34.036Z,16.90
2022-11-01T19:30:04.606Z,16.90
2022-11-01T19:32:33.448Z,17.00
2022-11-01T19:35:02.753Z,17.00
2022-11-01T19:37:36.564Z,16.80
2022-11-01T19:40:14.399Z,16.70
2022-11-01T19:42:43.350Z,16.50
2022-11-01T19:45:31.013Z,16.60
2022-11-01T19:48:03.090Z,16.50
2022-11-01T19:50:39.557Z,16.60
2022-11-01T19:53:20.997Z,16.70
2022-11-01T19:55:53.944Z,16.70
2022-11-01T19:58:39.333Z,16.70
2022-11-01T20:01:37.123Z,16.70
2022-11-01T20:04:15.884Z,16.70
2022-11-01T20:06:48.793Z,16.60
2022-11-01T20:09:26.100Z,16.60
2022-11-01T20:11:55.190Z,16.60
2022-11-01T20:14:24.120Z,16.70
2022-11-01T20:16:55.279Z,16.40
2022-11-01T20:19:24.346Z,16.50
2022-11-01T20:21:53.110Z,16.60
2022-11-01T20:24:22.061Z,16.60
2022-11-01T20:26:51.926Z,16.60
2022-11-01T20:29:20.850Z,16.50
2022-11-01T20:31:50.083Z,16.60
2022-11-01T20:34:21.514Z,16.50
2022-11-01T20:37:14.815Z,16.50
2022-11-01T20:39:39.578Z,16.50
2022-11-01T20:42:08.390Z,16.50
2022-11-01T20:44:37.255Z,16.60
2022-11-01T20:47:06.190Z,16.50
2022-11-01T20:49:36.481Z,16.50
2022-11-01T20:52:33.985Z,16.40
2022-11-01T20:54:57.085Z,16.40
2022-11-01T20:57:28.332Z,16.30
2022-11-01T20:59:57.593Z,16.50
2022-11-01T21:02:27.392Z,16.50
2022-11-01T21:05:02.849Z,16.40
2022-11-01T21:07:32.209Z,16.50
2022-11-01T21:10:01.202Z,16.40
2022-11-01T21:13:02.373Z,16.40
2022-11-01T21:15:37.573Z,16.40
2022-11-01T21:18:36.920Z,16.90
2022-11-01T21:21:35.359Z,16.60
2022-11-01T21:24:34.402Z,16.50
2022-11-01T21:30:16.431Z,16.50
2022-11-01T21:32:46.390Z,16.40
2022-11-01T21:35:40.410Z,16.50
2022-11-01T21:38:35.902Z,16.50
2022-11-01T21:41:27.351Z,16.40
2022-11-01T21:43:57.971Z,16.50
2022-11-01T21:46:32.774Z,16.50
2022-11-01T21:49:02.100Z,16.40
2022-11-01T21:51:32.653Z,16.50
2022-11-01T21:54:04.402Z,16.50
2022-11-01T21:56:35.150Z,16.40
2022-11-01T21:59:03.942Z,16.30
2022-11-01T22:01:32.898Z,16.30
2022-11-01T22:04:02.241Z,16.30
2022-11-01T22:06:31.127Z,16.30
2022-11-01T22:08:59.957Z,16.40
2022-11-01T22:11:32.484Z,15.80
2022-11-01T22:14:03.284Z,15.80
2022-11-01T22:16:32.326Z,15.70
2022-11-01T22:19:01.245Z,15.70
2022-11-01T22:21:30.313Z,15.30
2022-11-01T22:23:59.284Z,15.10
2022-11-01T22:26:28.145Z,15.00
2022-11-01T22:28:57.565Z,15.20
2022-11-01T22:31:28.045Z,15.40
2022-11-01T22:33:59.643Z,15.50
2022-11-01T22:36:29.440Z,15.20
2022-11-01T22:39:00.670Z,15.30
2022-11-01T22:41:33.906Z,15.30
2022-11-01T22:44:06.167Z,15.20
2022-11-01T22:46:46.854Z,15.10
2022-11-01T22:49:20.050Z,15.10
2022-11-01T22:51:51.593Z,15.30
2022-11-01T22:54:40.248Z,15.30
2022-11-01T22:57:16.327Z,15.10
2022-11-01T22:59:48.314Z,15.20
2022-11-01T23:02:33.792Z,15.20
2022-11-01T23:05:21.806Z,15.30
2022-11-01T23:07:51.838Z,15.50
2022-11-01T23:10:30.889Z,15.40
2022-11-01T23:13:21.525Z,15.40
2022-11-01T23:15:52.453Z,15.40
2022-11-01T23:18:27.534Z,15.30
2022-11-01T23:20:58.114Z,15.60
2022-11-01T23:23:27.379Z,15.30
2022-11-01T23:25:57.736Z,15.30
2022-11-01T23:28:26.678Z,15.10
2022-11-01T23:30:56.475Z,15.10
2022-11-01T23:33:35.735Z,15.10
2022-11-01T23:36:04.633Z,15.10
2022-11-01T23:38:37.276Z,15.20
2022-11-01T23:41:07.176Z,15.00
2022-11-01T23:43:39.997Z,15.00
2022-11-01T23:46:12.444Z,15.10
2022-11-01T23:48:44.595Z,15.10
2022-11-01T23:51:18.684Z,15.30
2022-11-01T23:53:50.076Z,15.40
2022-11-01T23:56:21.035Z,15.40
2022-11-01T23:58:56.832Z,15.80
